createdAt,value
2023-03-18T00:02:06.344Z,99.90
2023-03-18T00:04:35.521Z,99.90
2023-03-18T00:07:05.243Z,99.90
2023-03-18T00:12:03.097Z,99.90
2023-03-18T00:14:33.011Z,99.90
2023-03-18T00:17:01.347Z,99.90
2023-03-18T00:19:30.042Z,99.90
2023-03-18T00:24:29.816Z,99.90
2023-03-18T00:36:57.210Z,99.90
2023-03-18T00:41:59.014Z,99.90
2023-03-18T00:44:27.410Z,99.90
2023-03-18T00:46:55.740Z,99.90
2023-03-18T00:49:25.080Z,99.90
2023-03-18T00:54:24.849Z,99.90
2023-03-18T00:56:54.024Z,99.90
2023-03-18T00:59:24.020Z,99.90
2023-03-18T01:04:21.579Z,99.90
2023-03-18T01:06:50.145Z,99.90
2023-03-18T01:09:18.504Z,99.90
2023-03-18T01:11:46.870Z,99.90
2023-03-18T01:14:15.460Z,99.90
2023-03-18T01:16:46.980Z,99.90
2023-03-18T01:19:16.170Z,99.90
2023-03-18T01:21:44.977Z,99.90
2023-03-18T01:24:13.332Z,99.90
2023-03-18T01:26:41.921Z,99.90
2023-03-18T01:34:17.486Z,99.90
2023-03-18T01:39:23.855Z,99.90
2023-03-18T01:41:53.048Z,99.90
2023-03-18T01:47:02.150Z,99.90
2023-03-18T01:49:38.574Z,99.90
2023-03-18T01:52:12.921Z,99.90
2023-03-18T01:54:47.945Z,99.90
2023-03-18T01:57:19.202Z,99.90
2023-03-18T01:59:51.832Z,99.90
2023-03-18T02:02:20.810Z,99.90
2023-03-18T02:04:53.833Z,99.90
2023-03-18T02:07:25.748Z,99.90
2023-03-18T02:09:56.601Z,99.90
2023-03-18T02:12:30.100Z,99.90
2023-03-18T02:15:03.987Z,99.90
2023-03-18T02:17:38.065Z,99.90
2023-03-18T02:20:26.025Z,99.90
2023-03-18T02:23:00.444Z,99.90
2023-03-18T02:25:44.045Z,99.90
2023-03-18T02:28:21.594Z,99.90
2023-03-18T02:33:27.817Z,99.90
2023-03-18T02:36:02.203Z,99.90
2023-03-18T02:38:32.060Z,99.90
2023-03-18T02:41:02.101Z,99.90
2023-03-18T02:43:41.687Z,99.90
2023-03-18T02:48:55.216Z,99.90
2023-03-18T02:51:24.822Z,99.90
2023-03-18T02:53:56.694Z,99.90
2023-03-18T02:58:56.532Z,99.90
2023-03-18T03:01:25.463Z,99.90
2023-03-18T03:03:53.834Z,99.90
2023-03-18T03:08:51.672Z,99.90
2023-03-18T03:11:21.273Z,99.90
2023-03-18T03:13:50.307Z,99.90
2023-03-18T03:16:22.764Z,99.90
2023-03-18T03:18:51.651Z,99.90
2023-03-18T03:21:20.352Z,99.90
2023-03-18T03:23:50.495Z,99.90
2023-03-18T03:31:17.018Z,99.90
2023-03-18T03:33:47.756Z,99.90
2023-03-18T03:36:18.870Z,99.90
2023-03-18T03:38:48.363Z,99.90
2023-03-18T03:41:17.192Z,99.90
2023-03-18T03:43:46.323Z,99.90
2023-03-18T03:48:47.961Z,99.90
2023-03-18T03:51:16.512Z,99.90
2023-03-18T03:53:46.484Z,99.90
2023-03-18T03:58:45.880Z,99.90
2023-03-18T04:03:46.527Z,99.90
2023-03-18T04:06:15.505Z,99.90
2023-03-18T04:08:52.388Z,99.90
2023-03-18T04:11:22.215Z,99.90
2023-03-18T04:13:50.839Z,99.90
2023-03-18T04:16:19.308Z,99.90
2023-03-18T04:18:49.943Z,99.90
2023-03-18T04:21:18.786Z,99.90
2023-03-18T04:23:51.746Z,99.90
2023-03-18T04:26:20.285Z,99.90
2023-03-18T04:28:49.727Z,99.90
2023-03-18T04:31:18.326Z,99.90
2023-03-18T04:36:18.080Z,99.90
2023-03-18T04:41:16.121Z,99.90
2023-03-18T04:48:45.938Z,99.90
2023-03-18T04:53:46.654Z,99.90
2023-03-18T04:56:15.425Z,99.90
2023-03-18T04:58:49.734Z,99.90
2023-03-18T05:01:26.729Z,99.90
2023-03-18T05:06:30.115Z,99.90
2023-03-18T05:09:13.840Z,99.90
2023-03-18T05:11:43.713Z,99.90
2023-03-18T05:16:53.800Z,99.90
2023-03-18T05:19:23.974Z,99.90
2023-03-18T05:22:02.984Z,99.90
2023-03-18T05:24:33.752Z,99.90
2023-03-18T05:27:02.880Z,99.90
2023-03-18T05:29:38.432Z,99.90
2023-03-18T05:32:16.622Z,99.90
2023-03-18T05:34:46.470Z,99.90
2023-03-18T05:37:16.507Z,99.90
2023-03-18T05:39:54.031Z,99.90
2023-03-18T05:42:22.893Z,99.90
2023-03-18T05:44:51.673Z,99.90
2023-03-18T05:47:23.667Z,99.90
2023-03-18T05:50:08.640Z,99.90
2023-03-18T05:52:38.376Z,99.90
2023-03-18T05:55:16.076Z,99.90
2023-03-18T05:57:46.888Z,99.90
2023-03-18T06:00:18.785Z,99.90
2023-03-18T06:05:21.192Z,99.90
2023-03-18T06:07:50.312Z,99.90
2023-03-18T06:10:21.079Z,99.90
2023-03-18T06:12:51.333Z,99.90
2023-03-18T06:15:21.564Z,99.90
2023-03-18T06:20:21.043Z,99.90
2023-03-18T06:22:50.418Z,99.90
2023-03-18T06:25:23.284Z,99.90
2023-03-18T06:27:52.971Z,99.90
2023-03-18T06:30:24.963Z,99.90
2023-03-18T06:32:53.472Z,99.90
2023-03-18T06:35:26.625Z,99.90
2023-03-18T06:40:26.487Z,99.90
2023-03-18T06:42:56.603Z,99.90
2023-03-18T06:45:35.203Z,99.90
2023-03-18T06:48:09.649Z,99.90
2023-03-18T06:50:43.181Z,99.90
2023-03-18T06:53:25.369Z,99.90
2023-03-18T06:55:56.780Z,99.90
2023-03-18T06:58:28.240Z,99.90
2023-03-18T07:01:06.135Z,99.90
2023-03-18T07:03:39.839Z,99.90
2023-03-18T07:06:10.749Z,99.90
2023-03-18T07:08:41.023Z,99.90
2023-03-18T07:11:11.079Z,99.90
2023-03-18T07:16:18.724Z,99.90
2023-03-18T07:21:16.818Z,99.90
2023-03-18T07:23:45.242Z,99.90
2023-03-18T07:26:15.062Z,99.90
2023-03-18T07:28:43.448Z,99.90
2023-03-18T07:31:12.479Z,99.90
2023-03-18T07:36:11.134Z,99.90
2023-03-18T07:38:40.145Z,99.90
2023-03-18T07:46:08.799Z,99.90
2023-03-18T07:48:37.139Z,99.90
2023-03-18T07:53:35.973Z,99.90
2023-03-18T07:58:33.223Z,99.90
2023-03-18T08:01:04.037Z,99.90
2023-03-18T08:03:32.636Z,99.90
2023-03-18T08:06:01.122Z,99.90
2023-03-18T08:11:00.442Z,99.90
2023-03-18T08:13:29.081Z,99.90
2023-03-18T08:15:58.677Z,99.90
2023-03-18T08:18:28.799Z,99.90
2023-03-18T08:20:57.604Z,99.90
2023-03-18T08:23:26.127Z,99.90
2023-03-18T08:28:23.771Z,99.90
2023-03-18T08:30:56.951Z,99.90
2023-03-18T08:33:28.661Z,99.90
2023-03-18T08:35:58.426Z,99.90
2023-03-18T08:38:27.088Z,99.90
2023-03-18T08:40:56.950Z,99.90
2023-03-18T08:43:25.892Z,99.90
2023-03-18T08:45:55.564Z,99.90
2023-03-18T08:48:26.121Z,99.90
2023-03-18T08:50:55.959Z,99.90
2023-03-18T08:53:24.348Z,99.90
2023-03-18T08:55:52.798Z,99.90
2023-03-18T08:58:21.518Z,99.90
2023-03-18T09:00:50.771Z,99.90
2023-03-18T09:03:19.027Z,99.90
2023-03-18T09:05:50.311Z,99.90
2023-03-18T09:08:22.047Z,99.90
2023-03-18T09:10:53.851Z,99.90
2023-03-18T09:13:22.480Z,99.90
2023-03-18T09:15:51.112Z,99.90
2023-03-18T09:18:20.406Z,99.40
2023-03-18T09:20:49.120Z,99.90
2023-03-18T09:23:20.244Z,99.90
2023-03-18T09:25:50.228Z,99.90
2023-03-18T09:28:18.878Z,99.90
2023-03-18T09:30:47.265Z,99.90
2023-03-18T09:33:16.233Z,98.40
2023-03-18T09:35:44.805Z,98.60
2023-03-18T09:38:16.578Z,96.20
2023-03-18T09:41:01.132Z,96.30
2023-03-18T09:43:49.458Z,93.50
2023-03-18T09:46:29.501Z,91.00
2023-03-18T09:49:22.729Z,92.80
2023-03-18T09:52:00.739Z,91.60
2023-03-18T09:54:39.330Z,91.30
2023-03-18T09:57:19.621Z,86.90
2023-03-18T09:59:54.815Z,80.00
2023-03-18T10:02:32.766Z,78.20
2023-03-18T10:05:07.134Z,78.40
2023-03-18T10:07:42.900Z,79.20
2023-03-18T10:10:21.338Z,74.00
2023-03-18T10:13:03.400Z,71.30
2023-03-18T10:15:38.273Z,72.20
2023-03-18T10:18:16.338Z,71.40
2023-03-18T10:21:02.217Z,72.50
2023-03-18T10:23:50.174Z,73.60
2023-03-18T10:26:28.054Z,73.70
2023-03-18T10:29:13.585Z,71.20
2023-03-18T10:31:56.508Z,71.90
2023-03-18T10:34:39.919Z,68.20
2023-03-18T10:37:20.175Z,68.60
2023-03-18T10:39:50.431Z,69.20
2023-03-18T10:42:27.108Z,64.20
2023-03-18T10:45:08.595Z,64.70
2023-03-18T10:47:45.430Z,66.80
2023-03-18T10:50:22.099Z,65.30
2023-03-18T10:52:59.992Z,66.30
2023-03-18T10:55:37.411Z,63.60
2023-03-18T10:58:17.923Z,64.20
2023-03-18T11:00:48.040Z,59.50
2023-03-18T11:03:29.451Z,61.90
2023-03-18T11:06:04.366Z,61.00
2023-03-18T11:08:37.864Z,61.70
2023-03-18T11:11:33.133Z,59.80
2023-03-18T11:14:03.615Z,58.90
2023-03-18T11:16:39.849Z,58.60
2023-03-18T11:19:32.534Z,59.00
2023-03-18T11:22:22.374Z,59.00
2023-03-18T11:25:08.148Z,59.90
2023-03-18T11:27:41.458Z,58.60
2023-03-18T11:30:38.027Z,58.20
2023-03-18T11:33:17.474Z,58.60
2023-03-18T11:35:53.231Z,57.90
2023-03-18T11:38:28.724Z,58.00
2023-03-18T11:41:08.968Z,57.70
2023-03-18T11:43:38.745Z,56.60
2023-03-18T11:46:10.773Z,56.40
2023-03-18T11:48:44.317Z,57.20
2023-03-18T11:51:52.250Z,52.30
2023-03-18T11:54:41.337Z,55.20
2023-03-18T11:57:17.008Z,52.40
2023-03-18T12:00:08.165Z,51.50
2023-03-18T12:03:14.373Z,52.50
2023-03-18T12:06:00.481Z,53.60
2023-03-18T12:08:45.165Z,53.30
2023-03-18T12:11:24.948Z,54.30
2023-03-18T12:14:05.602Z,52.50
2023-03-18T12:16:51.888Z,53.60
2023-03-18T12:20:05.698Z,50.30
2023-03-18T12:22:58.686Z,51.60
2023-03-18T12:26:02.325Z,50.70
2023-03-18T12:29:09.965Z,51.20
2023-03-18T12:31:57.395Z,51.30
2023-03-18T12:34:46.824Z,52.00
2023-03-18T12:37:35.719Z,51.60
2023-03-18T12:40:24.730Z,50.00
2023-03-18T12:43:34.114Z,53.30
2023-03-18T12:46:14.729Z,52.30
2023-03-18T12:48:55.841Z,52.30
2023-03-18T12:51:30.517Z,50.50
2023-03-18T12:54:10.797Z,49.70
2023-03-18T12:56:50.986Z,55.10
2023-03-18T12:59:29.084Z,51.40
2023-03-18T13:02:22.889Z,50.50
2023-03-18T13:04:58.997Z,48.90
2023-03-18T13:07:43.239Z,50.60
2023-03-18T13:10:23.450Z,49.80
2023-03-18T13:12:59.629Z,49.30
2023-03-18T13:15:35.065Z,49.50
2023-03-18T13:18:15.965Z,48.50
2023-03-18T13:20:46.826Z,48.90
2023-03-18T13:23:40.307Z,49.20
2023-03-18T13:26:18.424Z,49.00
2023-03-18T13:29:09.527Z,48.80
2023-03-18T13:31:55.141Z,47.50
2023-03-18T13:35:12.729Z,46.40
2023-03-18T13:38:23.324Z,47.80
2023-03-18T13:41:21.287Z,47.60
2023-03-18T13:43:53.413Z,46.20
2023-03-18T13:46:27.238Z,46.50
2023-03-18T13:48:58.858Z,45.30
2023-03-18T13:51:52.487Z,45.40
2023-03-18T13:54:22.329Z,45.00
2023-03-18T13:56:55.786Z,44.70
2023-03-18T13:59:48.528Z,45.80
2023-03-18T14:02:45.716Z,43.50
2023-03-18T14:05:41.689Z,45.20
2023-03-18T14:08:46.541Z,44.60
2023-03-18T14:11:50.377Z,46.70
2023-03-18T14:15:11.929Z,45.40
2023-03-18T14:17:49.011Z,45.80
2023-03-18T14:20:39.572Z,45.50
2023-03-18T14:23:42.757Z,44.70
2023-03-18T14:26:25.099Z,44.00
2023-03-18T14:29:03.748Z,44.80
2023-03-18T14:31:57.755Z,44.60
2023-03-18T14:34:29.317Z,44.30
2023-03-18T14:37:27.935Z,45.30
2023-03-18T14:40:05.821Z,46.60
2023-03-18T14:42:45.847Z,46.30
2023-03-18T14:45:25.750Z,47.00
2023-03-18T14:47:57.704Z,47.10
2023-03-18T14:50:43.329Z,46.90
2023-03-18T14:53:22.577Z,45.90
2023-03-18T14:55:55.136Z,45.80
2023-03-18T14:58:26.322Z,45.60
2023-03-18T15:01:00.600Z,45.90
2023-03-18T15:03:32.710Z,43.90
2023-03-18T15:06:03.924Z,44.40
2023-03-18T15:08:47.445Z,45.20
2023-03-18T15:11:19.558Z,44.40
2023-03-18T15:16:21.504Z,44.40
2023-03-18T15:18:56.430Z,44.80
2023-03-18T15:21:32.374Z,45.40
2023-03-18T15:24:04.631Z,44.60
2023-03-18T15:26:37.674Z,44.50
2023-03-18T15:29:28.264Z,45.80
2023-03-18T15:32:10.705Z,46.10
2023-03-18T15:34:44.604Z,45.30
2023-03-18T15:37:33.710Z,45.30
2023-03-18T15:40:27.050Z,46.20
2023-03-18T15:42:58.882Z,46.10
2023-03-18T15:45:31.364Z,47.50
2023-03-18T15:48:09.477Z,49.30
2023-03-18T15:50:53.582Z,50.20
2023-03-18T15:55:56.752Z,51.50
2023-03-18T15:58:29.211Z,52.30
2023-03-18T16:06:03.173Z,56.80
2023-03-18T16:08:31.687Z,59.90
2023-03-18T16:11:05.850Z,60.40
2023-03-18T16:13:37.027Z,60.20
2023-03-18T16:18:34.967Z,62.90
2023-03-18T16:21:05.447Z,63.20
2023-03-18T16:23:33.912Z,64.00
2023-03-18T16:26:03.121Z,65.50
2023-03-18T16:31:00.895Z,67.60
2023-03-18T16:33:29.628Z,72.10
2023-03-18T16:38:33.579Z,75.90
2023-03-18T16:46:05.641Z,78.80
2023-03-18T16:48:34.301Z,78.20
2023-03-18T16:51:04.566Z,77.30
2023-03-18T16:53:34.388Z,79.30
2023-03-18T16:58:39.659Z,80.60
2023-03-18T17:01:08.233Z,80.30
2023-03-18T17:03:37.678Z,78.90
2023-03-18T17:06:08.755Z,80.30
2023-03-18T17:08:38.476Z,82.90
2023-03-18T17:11:07.449Z,85.00
2023-03-18T17:13:38.617Z,85.90
2023-03-18T17:16:15.621Z,87.20
2023-03-18T17:18:43.984Z,90.20
2023-03-18T17:23:43.173Z,90.20
2023-03-18T17:26:16.029Z,88.30
2023-03-18T17:28:48.681Z,86.40
2023-03-18T17:31:17.729Z,86.60
2023-03-18T17:33:46.720Z,87.60
2023-03-18T17:36:15.031Z,87.90
2023-03-18T17:38:44.699Z,90.20
2023-03-18T17:41:20.961Z,90.30
2023-03-18T17:43:49.739Z,89.60
2023-03-18T17:48:47.321Z,91.30
2023-03-18T17:53:51.451Z,92.50
2023-03-18T17:56:21.127Z,94.10
2023-03-18T17:58:53.422Z,96.40
2023-03-18T18:01:26.592Z,99.10
2023-03-18T18:03:58.234Z,99.90
2023-03-18T18:09:01.194Z,99.90
2023-03-18T18:11:32.966Z,99.90
2023-03-18T18:14:13.440Z,99.90
2023-03-18T18:16:41.772Z,99.90
2023-03-18T18:19:12.467Z,99.90
2023-03-18T18:21:41.698Z,99.90
2023-03-18T18:24:22.728Z,99.90
2023-03-18T18:26:51.408Z,99.90
2023-03-18T18:29:23.494Z,99.90
2023-03-18T18:31:52.772Z,99.90
2023-03-18T18:34:21.634Z,99.90
2023-03-18T18:36:51.310Z,99.90
2023-03-18T18:39:21.200Z,99.90
2023-03-18T18:41:49.905Z,99.90
2023-03-18T18:44:19.154Z,99.90
2023-03-18T18:46:47.885Z,99.90
2023-03-18T18:49:23.017Z,99.90
2023-03-18T18:51:53.326Z,99.90
2023-03-18T18:54:24.194Z,99.90
2023-03-18T18:59:26.935Z,99.90
2023-03-18T19:06:54.642Z,99.90
2023-03-18T19:14:28.365Z,99.90
2023-03-18T19:16:59.842Z,99.90
2023-03-18T19:19:34.417Z,99.90
2023-03-18T19:22:04.623Z,99.90
2023-03-18T19:24:37.065Z,99.90
2023-03-18T19:27:16.289Z,99.90
2023-03-18T19:32:19.228Z,99.90
2023-03-18T19:34:48.901Z,99.90
2023-03-18T19:37:21.492Z,99.90
2023-03-18T19:39:51.710Z,99.90
2023-03-18T19:42:20.652Z,99.90
2023-03-18T19:44:50.218Z,99.90
2023-03-18T19:49:49.661Z,99.90
2023-03-18T19:52:21.291Z,99.90
2023-03-18T19:54:52.297Z,99.90
2023-03-18T19:57:27.087Z,99.90
2023-03-18T19:59:58.354Z,99.90
2023-03-18T20:02:29.606Z,99.90
2023-03-18T20:05:02.103Z,99.90
2023-03-18T20:07:33.408Z,99.90
2023-03-18T20:10:03.274Z,99.90
2023-03-18T20:12:37.146Z,99.90
2023-03-18T20:17:40.189Z,99.90
2023-03-18T20:20:14.460Z,99.90
2023-03-18T20:22:48.089Z,99.90
2023-03-18T20:25:28.741Z,99.90
2023-03-18T20:27:58.085Z,99.90
2023-03-18T20:30:31.019Z,99.90
2023-03-18T20:33:03.834Z,99.90
2023-03-18T20:35:36.736Z,99.90
2023-03-18T20:38:13.216Z,99.90
2023-03-18T20:40:47.610Z,99.90
2023-03-18T20:43:17.202Z,99.90
2023-03-18T20:45:45.864Z,99.90
2023-03-18T20:48:14.577Z,99.90
2023-03-18T20:50:43.068Z,99.90
2023-03-18T20:55:47.824Z,99.90
2023-03-18T20:58:17.964Z,99.90
2023-03-18T21:00:47.243Z,99.90
2023-03-18T21:05:53.609Z,99.90
2023-03-18T21:08:22.100Z,99.90
2023-03-18T21:13:29.079Z,99.90
2023-03-18T21:18:29.120Z,99.90
2023-03-18T21:20:58.793Z,99.90
2023-03-18T21:23:30.089Z,99.90
2023-03-18T21:28:31.763Z,99.90
2023-03-18T21:31:01.514Z,99.90
2023-03-18T21:33:34.119Z,99.90
2023-03-18T21:36:03.528Z,99.90
2023-03-18T21:38:34.974Z,99.90
2023-03-18T21:41:04.966Z,99.90
2023-03-18T21:43:35.907Z,99.90
2023-03-18T21:46:06.792Z,99.90
2023-03-18T21:48:35.228Z,99.90
2023-03-18T21:51:04.483Z,99.90
2023-03-18T21:53:32.852Z,99.90
2023-03-18T21:56:01.134Z,99.90
2023-03-18T21:58:30.935Z,99.90
2023-03-18T22:01:01.368Z,99.90
2023-03-18T22:03:35.663Z,99.90
2023-03-18T22:06:04.291Z,99.90
2023-03-18T22:08:32.573Z,99.90
2023-03-18T22:13:33.292Z,99.90
2023-03-18T22:16:02.146Z,99.90
2023-03-18T22:18:31.526Z,99.90
2023-03-18T22:21:00.326Z,99.90
2023-03-18T22:23:31.305Z,99.90
2023-03-18T22:26:00.289Z,99.90
2023-03-18T22:31:01.383Z,99.90
2023-03-18T22:33:34.711Z,99.90
2023-03-18T22:36:03.536Z,99.90
2023-03-18T22:38:32.061Z,99.90
2023-03-18T22:41:00.586Z,99.90
2023-03-18T22:43:32.552Z,99.90
2023-03-18T22:46:05.221Z,99.90
2023-03-18T22:48:33.838Z,99.90
2023-03-18T22:51:04.451Z,99.90
2023-03-18T22:56:12.147Z,99.90
2023-03-18T22:58:41.014Z,99.90
2023-03-18T23:01:16.401Z,99.90
2023-03-18T23:06:20.000Z,99.90
2023-03-18T23:08:48.981Z,99.90
2023-03-18T23:11:18.294Z,99.90
2023-03-18T23:13:50.938Z,99.90
2023-03-18T23:16:25.931Z,99.90
2023-03-18T23:18:54.503Z,99.90
2023-03-18T23:21:26.327Z,99.90
2023-03-18T23:23:56.273Z,99.90
2023-03-18T23:26:24.643Z,99.90
2023-03-18T23:28:53.188Z,99.90
2023-03-18T23:31:22.940Z,99.90
2023-03-18T23:33:51.417Z,99.90
2023-03-18T23:36:19.843Z,99.90
2023-03-18T23:38:48.239Z,99.90
2023-03-18T23:43:47.307Z,99.90
2023-03-18T23:46:15.682Z,99.90
2023-03-18T23:48:45.506Z,99.90
2023-03-18T23:51:13.870Z,99.90
2023-03-18T23:53:42.172Z,99.90
2023-03-18T23:56:11.825Z,99.90
2023-03-18T23:58:40.303Z,99.90
